sensor_id;sensor_type;location;lat;lon;timestamp;pressure;altitude;pressure_sealevel;temperature
64904;BMP280;51401;48.882;12.598;2024-03-08T00:01:30;64179.81;;;-137.53
64904;BMP280;51401;48.882;12.598;2024-03-08T00:03:55;64177.81;;;-137.53
64904;BMP280;51401;48.882;12.598;2024-03-08T00:06:20;64175.84;;;-137.53
64904;BMP280;51401;48.882;12.598;2024-03-08T00:08:46;64177.81;;;-137.53
64904;BMP280;51401;48.882;12.598;2024-03-08T00:11:11;64177.81;;;-137.53
64904;BMP280;51401;48.882;12.598;2024-03-08T00:13:36;64177.81;;;-137.53
64904;BMP280;51401;48.882;12.598;2024-03-08T00:16:02;64179.81;;;-137.53
64904;BMP280;51401;48.882;12.598;2024-03-08T00:18:27;64179.81;;;-137.53
64904;BMP280;51401;48.882;12.598;2024-03-08T00:20:52;64179.81;;;-137.53
64904;BMP280;51401;48.882;12.598;2024-03-08T00:23:17;64179.81;;;-137.53
64904;BMP280;51401;48.882;12.598;2024-03-08T00:25:43;64177.81;;;-137.53
64904;BMP280;51401;48.882;12.598;2024-03-08T00:28:08;64177.81;;;-137.53
64904;BMP280;51401;48.882;12.598;2024-03-08T00:30:33;64173.84;;;-137.53
64904;BMP280;51401;48.882;12.598;2024-03-08T00:32:59;64177.81;;;-137.53
64904;BMP280;51401;48.882;12.598;2024-03-08T00:35:24;64177.81;;;-137.53
64904;BMP280;51401;48.882;12.598;2024-03-08T00:37:50;64175.84;;;-137.53
64904;BMP280;51401;48.882;12.598;2024-03-08T00:40:15;64177.81;;;-137.53
64904;BMP280;51401;48.882;12.598;2024-03-08T00:42:41;64175.84;;;-137.53
64904;BMP280;51401;48.882;12.598;2024-03-08T00:45:09;64173.84;;;-137.53
64904;BMP280;51401;48.882;12.598;2024-03-08T00:47:35;64175.84;;;-137.53
64904;BMP280;51401;48.882;12.598;2024-03-08T00:50:00;64175.84;;;-137.53
64904;BMP280;51401;48.882;12.598;2024-03-08T00:52:29;64173.84;;;-137.53
64904;BMP280;51401;48.882;12.598;2024-03-08T00:54:54;64175.84;;;-137.53
64904;BMP280;51401;48.882;12.598;2024-03-08T00:57:19;64175.84;;;-137.53
64904;BMP280;51401;48.882;12.598;2024-03-08T00:59:46;64177.81;;;-137.53
64904;BMP280;51401;48.882;12.598;2024-03-08T01:02:12;64171.84;;;-137.53
64904;BMP280;51401;48.882;12.598;2024-03-08T01:04:37;64177.81;;;-137.53
64904;BMP280;51401;48.882;12.598;2024-03-08T01:07:03;64173.84;;;-137.53
64904;BMP280;51401;48.882;12.598;2024-03-08T01:09:29;64175.84;;;-137.53
64904;BMP280;51401;48.882;12.598;2024-03-08T01:11:54;64175.84;;;-137.53
64904;BMP280;51401;48.882;12.598;2024-03-08T01:14:21;64177.81;;;-137.53
64904;BMP280;51401;48.882;12.598;2024-03-08T01:16:54;64175.84;;;-137.53
64904;BMP280;51401;48.882;12.598;2024-03-08T01:19:20;64175.84;;;-137.53
64904;BMP280;51401;48.882;12.598;2024-03-08T01:21:45;64177.81;;;-137.53
64904;BMP280;51401;48.882;12.598;2024-03-08T01:24:10;64177.81;;;-137.53
64904;BMP280;51401;48.882;12.598;2024-03-08T01:26:35;64175.84;;;-137.53
64904;BMP280;51401;48.882;12.598;2024-03-08T01:29:01;64175.84;;;-137.53
64904;BMP280;51401;48.882;12.598;2024-03-08T01:31:30;64173.84;;;-137.53
64904;BMP280;51401;48.882;12.598;2024-03-08T01:33:56;64179.81;;;-137.53
64904;BMP280;51401;48.882;12.598;2024-03-08T01:36:22;64175.84;;;-137.53
64904;BMP280;51401;48.882;12.598;2024-03-08T01:38:47;64175.84;;;-137.53
64904;BMP280;51401;48.882;12.598;2024-03-08T01:41:12;64179.81;;;-137.53
64904;BMP280;51401;48.882;12.598;2024-03-08T01:43:38;64177.81;;;-137.53
64904;BMP280;51401;48.882;12.598;2024-03-08T01:46:04;64179.81;;;-137.53
64904;BMP280;51401;48.882;12.598;2024-03-08T01:48:31;64173.84;;;-137.53
64904;BMP280;51401;48.882;12.598;2024-03-08T01:50:57;64175.84;;;-137.53
64904;BMP280;51401;48.882;12.598;2024-03-08T01:53:24;64179.81;;;-137.53
64904;BMP280;51401;48.882;12.598;2024-03-08T01:55:52;64177.81;;;-137.53
64904;BMP280;51401;48.882;12.598;2024-03-08T01:58:19;64177.81;;;-137.53
64904;BMP280;51401;48.882;12.598;2024-03-08T02:00:48;64179.81;;;-137.53
64904;BMP280;51401;48.882;12.598;2024-03-08T02:03:17;64179.81;;;-137.53
64904;BMP280;51401;48.882;12.598;2024-03-08T02:05:42;64175.84;;;-137.53
64904;BMP280;51401;48.882;12.598;2024-03-08T02:08:08;64177.81;;;-137.53
64904;BMP280;51401;48.882;12.598;2024-03-08T02:10:38;64177.81;;;-137.53
64904;BMP280;51401;48.882;12.598;2024-03-08T02:13:03;64177.81;;;-137.53
64904;BMP280;51401;48.882;12.598;2024-03-08T02:18:16;64179.81;;;-137.53
64904;BMP280;51401;48.882;12.598;2024-03-08T02:20:42;64179.81;;;-137.53
64904;BMP280;51401;48.882;12.598;2024-03-08T02:23:07;64181.78;;;-137.53
64904;BMP280;51401;48.882;12.598;2024-03-08T02:25:33;64181.78;;;-137.53
64904;BMP280;51401;48.882;12.598;2024-03-08T02:27:58;64181.78;;;-137.53
64904;BMP280;51401;48.882;12.598;2024-03-08T02:30:23;64179.81;;;-137.53
64904;BMP280;51401;48.882;12.598;2024-03-08T02:32:49;64179.81;;;-137.53
64904;BMP280;51401;48.882;12.598;2024-03-08T02:35:14;64181.78;;;-137.53
64904;BMP280;51401;48.882;12.598;2024-03-08T02:37:39;64179.81;;;-137.53
64904;BMP280;51401;48.882;12.598;2024-03-08T02:40:05;64179.81;;;-137.53
64904;BMP280;51401;48.882;12.598;2024-03-08T02:42:30;64181.78;;;-137.53
64904;BMP280;51401;48.882;12.598;2024-03-08T02:44:55;64179.81;;;-137.53
64904;BMP280;51401;48.882;12.598;2024-03-08T02:47:21;64179.81;;;-137.53
64904;BMP280;51401;48.882;12.598;2024-03-08T02:49:46;64175.84;;;-137.53
64904;BMP280;51401;48.882;12.598;2024-03-08T02:52:11;64177.81;;;-137.53
64904;BMP280;51401;48.882;12.598;2024-03-08T02:54:37;64183.78;;;-137.53
64904;BMP280;51401;48.882;12.598;2024-03-08T02:57:03;64179.81;;;-137.53
64904;BMP280;51401;48.882;12.598;2024-03-08T02:59:29;64177.81;;;-137.53
64904;BMP280;51401;48.882;12.598;2024-03-08T03:01:54;64179.81;;;-137.53
64904;BMP280;51401;48.882;12.598;2024-03-08T03:04:19;64179.81;;;-137.53
64904;BMP280;51401;48.882;12.598;2024-03-08T03:06:44;64183.78;;;-137.53
64904;BMP280;51401;48.882;12.598;2024-03-08T03:09:11;64183.78;;;-137.53
64904;BMP280;51401;48.882;12.598;2024-03-08T03:11:36;64179.81;;;-137.53
64904;BMP280;51401;48.882;12.598;2024-03-08T03:14:02;64181.78;;;-137.53
64904;BMP280;51401;48.882;12.598;2024-03-08T03:16:28;64179.81;;;-137.53
64904;BMP280;51401;48.882;12.598;2024-03-08T03:18:53;64183.78;;;-137.53
64904;BMP280;51401;48.882;12.598;2024-03-08T03:21:19;64181.78;;;-137.53
64904;BMP280;51401;48.882;12.598;2024-03-08T03:23:44;64179.81;;;-137.53
64904;BMP280;51401;48.882;12.598;2024-03-08T03:26:09;64181.78;;;-137.53
64904;BMP280;51401;48.882;12.598;2024-03-08T03:28:38;64179.81;;;-137.53
64904;BMP280;51401;48.882;12.598;2024-03-08T03:31:08;64181.78;;;-137.53
64904;BMP280;51401;48.882;12.598;2024-03-08T03:33:39;64179.81;;;-137.53
64904;BMP280;51401;48.882;12.598;2024-03-08T03:36:05;64181.78;;;-137.53
64904;BMP280;51401;48.882;12.598;2024-03-08T03:38:30;64179.81;;;-137.53
64904;BMP280;51401;48.882;12.598;2024-03-08T03:40:55;64181.78;;;-137.53
64904;BMP280;51401;48.882;12.598;2024-03-08T03:43:23;64181.78;;;-137.53
64904;BMP280;51401;48.882;12.598;2024-03-08T03:45:48;64181.78;;;-137.53
64904;BMP280;51401;48.882;12.598;2024-03-08T03:48:13;64181.78;;;-137.53
64904;BMP280;51401;48.882;12.598;2024-03-08T03:50:39;64183.78;;;-137.53
64904;BMP280;51401;48.882;12.598;2024-03-08T03:53:04;64179.81;;;-137.53
64904;BMP280;51401;48.882;12.598;2024-03-08T03:55:32;64179.81;;;-137.53
64904;BMP280;51401;48.882;12.598;2024-03-08T03:57:59;64179.81;;;-137.53
64904;BMP280;51401;48.882;12.598;2024-03-08T04:00:26;64181.78;;;-137.53
64904;BMP280;51401;48.882;12.598;2024-03-08T04:02:52;64177.81;;;-137.53
64904;BMP280;51401;48.882;12.598;2024-03-08T04:05:17;64181.78;;;-137.53
64904;BMP280;51401;48.882;12.598;2024-03-08T04:07:42;64181.78;;;-137.53
64904;BMP280;51401;48.882;12.598;2024-03-08T04:10:08;64183.78;;;-137.53
64904;BMP280;51401;48.882;12.598;2024-03-08T04:12:34;64179.81;;;-137.53
64904;BMP280;51401;48.882;12.598;2024-03-08T04:14:59;64177.81;;;-137.53
64904;BMP280;51401;48.882;12.598;2024-03-08T04:17:25;64181.78;;;-137.53
64904;BMP280;51401;48.882;12.598;2024-03-08T04:19:51;64179.81;;;-137.53
64904;BMP280;51401;48.882;12.598;2024-03-08T04:22:16;64179.81;;;-137.53
64904;BMP280;51401;48.882;12.598;2024-03-08T04:24:43;64177.81;;;-137.53
64904;BMP280;51401;48.882;12.598;2024-03-08T04:27:08;64177.81;;;-137.53
64904;BMP280;51401;48.882;12.598;2024-03-08T04:29:34;64183.78;;;-137.53
64904;BMP280;51401;48.882;12.598;2024-03-08T04:31:59;64185.75;;;-137.53
64904;BMP280;51401;48.882;12.598;2024-03-08T04:34:25;64181.78;;;-137.53
64904;BMP280;51401;48.882;12.598;2024-03-08T04:36:50;64181.78;;;-137.53
64904;BMP280;51401;48.882;12.598;2024-03-08T04:39:15;64179.81;;;-137.53
64904;BMP280;51401;48.882;12.598;2024-03-08T04:41:42;64183.78;;;-137.53
64904;BMP280;51401;48.882;12.598;2024-03-08T04:44:08;64183.78;;;-137.53
64904;BMP280;51401;48.882;12.598;2024-03-08T04:46:34;64183.78;;;-137.53
64904;BMP280;51401;48.882;12.598;2024-03-08T04:49:00;64179.81;;;-137.53
64904;BMP280;51401;48.882;12.598;2024-03-08T04:51:25;64179.81;;;-137.53
64904;BMP280;51401;48.882;12.598;2024-03-08T04:53:51;64179.81;;;-137.53
64904;BMP280;51401;48.882;12.598;2024-03-08T04:56:16;64181.78;;;-137.53
64904;BMP280;51401;48.882;12.598;2024-03-08T04:58:44;64179.81;;;-137.53
64904;BMP280;51401;48.882;12.598;2024-03-08T05:01:12;64181.78;;;-137.53
64904;BMP280;51401;48.882;12.598;2024-03-08T05:03:37;64179.81;;;-137.53
64904;BMP280;51401;48.882;12.598;2024-03-08T05:06:04;64179.81;;;-137.53
64904;BMP280;51401;48.882;12.598;2024-03-08T05:08:29;64183.78;;;-137.53
64904;BMP280;51401;48.882;12.598;2024-03-08T05:10:55;64179.81;;;-137.53
64904;BMP280;51401;48.882;12.598;2024-03-08T05:13:20;64187.75;;;-137.53
64904;BMP280;51401;48.882;12.598;2024-03-08T05:15:51;64183.78;;;-137.53
64904;BMP280;51401;48.882;12.598;2024-03-08T05:18:16;64179.81;;;-137.53
64904;BMP280;51401;48.882;12.598;2024-03-08T05:20:41;64177.81;;;-137.53
64904;BMP280;51401;48.882;12.598;2024-03-08T05:23:07;64185.75;;;-137.53
64904;BMP280;51401;48.882;12.598;2024-03-08T05:25:33;64183.78;;;-137.53
64904;BMP280;51401;48.882;12.598;2024-03-08T05:27:58;64179.81;;;-137.53
64904;BMP280;51401;48.882;12.598;2024-03-08T05:30:24;64179.81;;;-137.53
64904;BMP280;51401;48.882;12.598;2024-03-08T05:32:49;64183.78;;;-137.53
64904;BMP280;51401;48.882;12.598;2024-03-08T05:35:14;64181.78;;;-137.53
64904;BMP280;51401;48.882;12.598;2024-03-08T05:37:41;64183.78;;;-137.53
64904;BMP280;51401;48.882;12.598;2024-03-08T05:40:08;64181.78;;;-137.53
64904;BMP280;51401;48.882;12.598;2024-03-08T05:42:36;64183.78;;;-137.53
64904;BMP280;51401;48.882;12.598;2024-03-08T05:45:04;64179.81;;;-137.53
64904;BMP280;51401;48.882;12.598;2024-03-08T05:47:31;64181.78;;;-137.53
64904;BMP280;51401;48.882;12.598;2024-03-08T05:49:57;64183.78;;;-137.53
64904;BMP280;51401;48.882;12.598;2024-03-08T05:52:23;64185.75;;;-137.53
64904;BMP280;51401;48.882;12.598;2024-03-08T05:54:48;64181.78;;;-137.53
64904;BMP280;51401;48.882;12.598;2024-03-08T05:57:13;64181.78;;;-137.53
64904;BMP280;51401;48.882;12.598;2024-03-08T05:59:39;64179.81;;;-137.53
64904;BMP280;51401;48.882;12.598;2024-03-08T06:02:05;64179.81;;;-137.53
64904;BMP280;51401;48.882;12.598;2024-03-08T06:04:30;64179.81;;;-137.53
64904;BMP280;51401;48.882;12.598;2024-03-08T06:06:56;64181.78;;;-137.53
64904;BMP280;51401;48.882;12.598;2024-03-08T06:09:23;64181.78;;;-137.53
64904;BMP280;51401;48.882;12.598;2024-03-08T06:11:49;64179.81;;;-137.53
64904;BMP280;51401;48.882;12.598;2024-03-08T06:14:15;64179.81;;;-137.53
64904;BMP280;51401;48.882;12.598;2024-03-08T06:16:44;64181.78;;;-137.53
64904;BMP280;51401;48.882;12.598;2024-03-08T06:19:09;64179.81;;;-137.53
64904;BMP280;51401;48.882;12.598;2024-03-08T06:21:35;64183.78;;;-137.53
64904;BMP280;51401;48.882;12.598;2024-03-08T06:24:00;64179.81;;;-137.53
64904;BMP280;51401;48.882;12.598;2024-03-08T06:26:25;64175.84;;;-137.53
64904;BMP280;51401;48.882;12.598;2024-03-08T06:28:53;64175.84;;;-137.53
64904;BMP280;51401;48.882;12.598;2024-03-08T06:31:19;64175.84;;;-137.53
64904;BMP280;51401;48.882;12.598;2024-03-08T06:33:45;64175.84;;;-137.53
64904;BMP280;51401;48.882;12.598;2024-03-08T06:36:10;64175.84;;;-137.53
64904;BMP280;51401;48.882;12.598;2024-03-08T06:38:37;64171.84;;;-137.53
64904;BMP280;51401;48.882;12.598;2024-03-08T06:41:07;64173.84;;;-137.53
64904;BMP280;51401;48.882;12.598;2024-03-08T06:43:32;64169.88;;;-137.53
64904;BMP280;51401;48.882;12.598;2024-03-08T06:45:59;64167.88;;;-137.53
64904;BMP280;51401;48.882;12.598;2024-03-08T06:48:24;64169.88;;;-137.53
64904;BMP280;51401;48.882;12.598;2024-03-08T06:50:50;64167.88;;;-137.53
64904;BMP280;51401;48.882;12.598;2024-03-08T06:53:15;64163.91;;;-137.53
64904;BMP280;51401;48.882;12.598;2024-03-08T06:55:44;64165.91;;;-137.53
64904;BMP280;51401;48.882;12.598;2024-03-08T06:58:09;64165.91;;;-137.53
64904;BMP280;51401;48.882;12.598;2024-03-08T07:00:36;64165.91;;;-137.53
64904;BMP280;51401;48.882;12.598;2024-03-08T07:03:01;64165.91;;;-137.53
64904;BMP280;51401;48.882;12.598;2024-03-08T07:05:30;64163.91;;;-137.53
64904;BMP280;51401;48.882;12.598;2024-03-08T07:07:56;64163.91;;;-137.53
64904;BMP280;51401;48.882;12.598;2024-03-08T07:10:21;64165.91;;;-137.53
64904;BMP280;51401;48.882;12.598;2024-03-08T07:12:49;64163.91;;;-137.53
64904;BMP280;51401;48.882;12.598;2024-03-08T07:15:15;64163.91;;;-137.53
64904;BMP280;51401;48.882;12.598;2024-03-08T07:17:41;64161.94;;;-137.53
64904;BMP280;51401;48.882;12.598;2024-03-08T07:20:10;64163.91;;;-137.53
64904;BMP280;51401;48.882;12.598;2024-03-08T07:22:37;64161.94;;;-137.53
64904;BMP280;51401;48.882;12.598;2024-03-08T07:25:05;64159.94;;;-137.53
64904;BMP280;51401;48.882;12.598;2024-03-08T07:27:53;64161.94;;;-137.53
64904;BMP280;51401;48.882;12.598;2024-03-08T07:30:19;64159.94;;;-137.53
64904;BMP280;51401;48.882;12.598;2024-03-08T07:33:04;64161.94;;;-137.53
64904;BMP280;51401;48.882;12.598;2024-03-08T07:35:29;64163.91;;;-137.53
64904;BMP280;51401;48.882;12.598;2024-03-08T07:37:56;64161.94;;;-137.53
64904;BMP280;51401;48.882;12.598;2024-03-08T07:40:21;64161.94;;;-137.53
64904;BMP280;51401;48.882;12.598;2024-03-08T07:42:47;64161.94;;;-137.53
64904;BMP280;51401;48.882;12.598;2024-03-08T07:45:12;64161.94;;;-137.53
64904;BMP280;51401;48.882;12.598;2024-03-08T07:47:38;64161.94;;;-137.53
64904;BMP280;51401;48.882;12.598;2024-03-08T07:50:03;64161.94;;;-137.53
64904;BMP280;51401;48.882;12.598;2024-03-08T07:52:29;64163.91;;;-137.53
64904;BMP280;51401;48.882;12.598;2024-03-08T07:54:54;64163.91;;;-137.53
64904;BMP280;51401;48.882;12.598;2024-03-08T07:57:19;64163.91;;;-137.53
64904;BMP280;51401;48.882;12.598;2024-03-08T07:59:45;64161.94;;;-137.53
64904;BMP280;51401;48.882;12.598;2024-03-08T08:02:10;64159.94;;;-137.53
64904;BMP280;51401;48.882;12.598;2024-03-08T08:04:35;64159.94;;;-137.53
64904;BMP280;51401;48.882;12.598;2024-03-08T08:07:01;64159.94;;;-137.53
64904;BMP280;51401;48.882;12.598;2024-03-08T08:09:26;64159.94;;;-137.53
64904;BMP280;51401;48.882;12.598;2024-03-08T08:11:59;64163.91;;;-137.53
64904;BMP280;51401;48.882;12.598;2024-03-08T08:14:26;64155.97;;;-137.53
64904;BMP280;51401;48.882;12.598;2024-03-08T08:16:51;64159.94;;;-137.53
64904;BMP280;51401;48.882;12.598;2024-03-08T08:19:18;64159.94;;;-137.53
64904;BMP280;51401;48.882;12.598;2024-03-08T08:21:43;64155.97;;;-137.53
64904;BMP280;51401;48.882;12.598;2024-03-08T08:24:09;64155.97;;;-137.53
64904;BMP280;51401;48.882;12.598;2024-03-08T08:26:34;64155.97;;;-137.53
64904;BMP280;51401;48.882;12.598;2024-03-08T08:29:01;64159.94;;;-137.53
64904;BMP280;51401;48.882;12.598;2024-03-08T08:31:26;64155.97;;;-137.53
64904;BMP280;51401;48.882;12.598;2024-03-08T08:33:52;64155.97;;;-137.53
64904;BMP280;51401;48.882;12.598;2024-03-08T08:36:24;64157.97;;;-137.53
64904;BMP280;51401;48.882;12.598;2024-03-08T08:38:49;64154.00;;;-137.53
64904;BMP280;51401;48.882;12.598;2024-03-08T08:41:15;64154.00;;;-137.53
64904;BMP280;51401;48.882;12.598;2024-03-08T08:43:42;64150.03;;;-137.53
64904;BMP280;51401;48.882;12.598;2024-03-08T08:46:10;64154.00;;;-137.53
64904;BMP280;51401;48.882;12.598;2024-03-08T08:48:39;64152.00;;;-137.53
64904;BMP280;51401;48.882;12.598;2024-03-08T08:51:06;64152.00;;;-137.53
64904;BMP280;51401;48.882;12.598;2024-03-08T08:53:32;64152.00;;;-137.53
64904;BMP280;51401;48.882;12.598;2024-03-08T08:55:57;64154.00;;;-137.53
64904;BMP280;51401;48.882;12.598;2024-03-08T08:58:22;64152.00;;;-137.53
64904;BMP280;51401;48.882;12.598;2024-03-08T09:00:47;64150.03;;;-137.53
64904;BMP280;51401;48.882;12.598;2024-03-08T09:03:13;64154.00;;;-137.53
64904;BMP280;51401;48.882;12.598;2024-03-08T09:05:38;64152.00;;;-137.53
64904;BMP280;51401;48.882;12.598;2024-03-08T09:08:04;64148.03;;;-137.53
64904;BMP280;51401;48.882;12.598;2024-03-08T09:10:29;64152.00;;;-137.53
64904;BMP280;51401;48.882;12.598;2024-03-08T09:12:54;64148.03;;;-137.53
64904;BMP280;51401;48.882;12.598;2024-03-08T09:15:20;64150.03;;;-137.53
64904;BMP280;51401;48.882;12.598;2024-03-08T09:17:46;64152.00;;;-137.53
64904;BMP280;51401;48.882;12.598;2024-03-08T09:20:12;64152.00;;;-137.53
64904;BMP280;51401;48.882;12.598;2024-03-08T09:22:45;64150.03;;;-137.53
64904;BMP280;51401;48.882;12.598;2024-03-08T09:25:11;64150.03;;;-137.53
64904;BMP280;51401;48.882;12.598;2024-03-08T09:27:36;64148.03;;;-137.53
64904;BMP280;51401;48.882;12.598;2024-03-08T09:30:02;64150.03;;;-137.53
64904;BMP280;51401;48.882;12.598;2024-03-08T09:32:27;64152.00;;;-137.53
64904;BMP280;51401;48.882;12.598;2024-03-08T09:34:53;64148.03;;;-137.53
64904;BMP280;51401;48.882;12.598;2024-03-08T09:37:18;64144.06;;;-137.53
64904;BMP280;51401;48.882;12.598;2024-03-08T09:39:44;64144.06;;;-137.53
64904;BMP280;51401;48.882;12.598;2024-03-08T09:42:09;64146.03;;;-137.53
64904;BMP280;51401;48.882;12.598;2024-03-08T09:44:36;64150.03;;;-137.53
64904;BMP280;51401;48.882;12.598;2024-03-08T09:47:02;64148.03;;;-137.53
64904;BMP280;51401;48.882;12.598;2024-03-08T09:49:27;64146.03;;;-137.53
64904;BMP280;51401;48.882;12.598;2024-03-08T09:51:54;64148.03;;;-137.53
64904;BMP280;51401;48.882;12.598;2024-03-08T09:54:20;64142.06;;;-137.53
64904;BMP280;51401;48.882;12.598;2024-03-08T09:56:47;64144.06;;;-137.53
64904;BMP280;51401;48.882;12.598;2024-03-08T09:59:14;64140.09;;;-137.53
64904;BMP280;51401;48.882;12.598;2024-03-08T10:01:48;64144.06;;;-137.53
64904;BMP280;51401;48.882;12.598;2024-03-08T10:04:14;64142.06;;;-137.53
64904;BMP280;51401;48.882;12.598;2024-03-08T10:06:40;64142.06;;;-137.53
64904;BMP280;51401;48.882;12.598;2024-03-08T10:09:06;64144.06;;;-137.53
64904;BMP280;51401;48.882;12.598;2024-03-08T10:11:33;64146.03;;;-137.53
64904;BMP280;51401;48.882;12.598;2024-03-08T10:14:00;64142.06;;;-137.53
64904;BMP280;51401;48.882;12.598;2024-03-08T10:16:27;64146.03;;;-137.53
64904;BMP280;51401;48.882;12.598;2024-03-08T10:18:53;64140.09;;;-137.53
64904;BMP280;51401;48.882;12.598;2024-03-08T10:21:21;64140.09;;;-137.53
64904;BMP280;51401;48.882;12.598;2024-03-08T10:23:46;64142.06;;;-137.53
64904;BMP280;51401;48.882;12.598;2024-03-08T10:26:14;64138.09;;;-137.53
64904;BMP280;51401;48.882;12.598;2024-03-08T10:28:41;64138.09;;;-137.53
64904;BMP280;51401;48.882;12.598;2024-03-08T10:31:06;64138.09;;;-137.53
64904;BMP280;51401;48.882;12.598;2024-03-08T10:33:32;64138.09;;;-137.53
64904;BMP280;51401;48.882;12.598;2024-03-08T10:35:58;64140.09;;;-137.53
64904;BMP280;51401;48.882;12.598;2024-03-08T10:38:25;64142.06;;;-137.53
64904;BMP280;51401;48.882;12.598;2024-03-08T10:40:51;64140.09;;;-137.53
64904;BMP280;51401;48.882;12.598;2024-03-08T10:43:24;64140.09;;;-137.53
64904;BMP280;51401;48.882;12.598;2024-03-08T10:46:32;64138.09;;;-137.53
64904;BMP280;51401;48.882;12.598;2024-03-08T10:49:00;64138.09;;;-137.53
64904;BMP280;51401;48.882;12.598;2024-03-08T10:51:30;64140.09;;;-137.53
64904;BMP280;51401;48.882;12.598;2024-03-08T10:53:57;64140.09;;;-137.53
64904;BMP280;51401;48.882;12.598;2024-03-08T10:56:22;64140.09;;;-137.53
64904;BMP280;51401;48.882;12.598;2024-03-08T10:58:48;64136.13;;;-137.53
64904;BMP280;51401;48.882;12.598;2024-03-08T11:01:14;64140.09;;;-137.53
64904;BMP280;51401;48.882;12.598;2024-03-08T11:06:08;64134.13;;;-137.53
64904;BMP280;51401;48.882;12.598;2024-03-08T11:08:36;64138.09;;;-137.53
64904;BMP280;51401;48.882;12.598;2024-03-08T11:11:02;64138.09;;;-137.53
64904;BMP280;51401;48.882;12.598;2024-03-08T11:13:38;64138.09;;;-137.53
64904;BMP280;51401;48.882;12.598;2024-03-08T11:18:49;64136.13;;;-137.53
64904;BMP280;51401;48.882;12.598;2024-03-08T11:21:14;64144.06;;;-137.53
64904;BMP280;51401;48.882;12.598;2024-03-08T11:23:40;64142.06;;;-137.53
64904;BMP280;51401;48.882;12.598;2024-03-08T11:26:18;64142.06;;;-137.53
64904;BMP280;51401;48.882;12.598;2024-03-08T11:28:43;64142.06;;;-137.53
64904;BMP280;51401;48.882;12.598;2024-03-08T11:33:35;64140.09;;;-137.53
64904;BMP280;51401;48.882;12.598;2024-03-08T11:38:40;64144.06;;;-137.53
64904;BMP280;51401;48.882;12.598;2024-03-08T11:41:05;64140.09;;;-137.53
64904;BMP280;51401;48.882;12.598;2024-03-08T11:43:30;64140.09;;;-137.53
64904;BMP280;51401;48.882;12.598;2024-03-08T11:46:09;64140.09;;;-137.53
64904;BMP280;51401;48.882;12.598;2024-03-08T11:48:34;64144.06;;;-137.53
64904;BMP280;51401;48.882;12.598;2024-03-08T11:51:01;64146.03;;;-137.53
64904;BMP280;51401;48.882;12.598;2024-03-08T11:53:27;64142.06;;;-137.53
64904;BMP280;51401;48.882;12.598;2024-03-08T11:55:52;64144.06;;;-137.53
64904;BMP280;51401;48.882;12.598;2024-03-08T11:58:17;64144.06;;;-137.53
64904;BMP280;51401;48.882;12.598;2024-03-08T12:00:43;64146.03;;;-137.53
64904;BMP280;51401;48.882;12.598;2024-03-08T12:03:11;64148.03;;;-137.53
64904;BMP280;51401;48.882;12.598;2024-03-08T12:05:37;64144.06;;;-137.53
64904;BMP280;51401;48.882;12.598;2024-03-08T12:08:04;64144.06;;;-137.53
64904;BMP280;51401;48.882;12.598;2024-03-08T12:10:32;64144.06;;;-137.53
64904;BMP280;51401;48.882;12.598;2024-03-08T12:12:58;64146.03;;;-137.53
64904;BMP280;51401;48.882;12.598;2024-03-08T12:15:28;64144.06;;;-137.53
64904;BMP280;51401;48.882;12.598;2024-03-08T12:17:54;64144.06;;;-137.53
64904;BMP280;51401;48.882;12.598;2024-03-08T12:20:24;64144.06;;;-137.53
64904;BMP280;51401;48.882;12.598;2024-03-08T12:22:57;64144.06;;;-137.53
64904;BMP280;51401;48.882;12.598;2024-03-08T12:25:32;64142.06;;;-137.53
64904;BMP280;51401;48.882;12.598;2024-03-08T12:28:13;64142.06;;;-137.53
64904;BMP280;51401;48.882;12.598;2024-03-08T12:30:47;64144.06;;;-137.53
64904;BMP280;51401;48.882;12.598;2024-03-08T12:33:14;64140.09;;;-137.53
64904;BMP280;51401;48.882;12.598;2024-03-08T12:35:39;64140.09;;;-137.53
64904;BMP280;51401;48.882;12.598;2024-03-08T12:38:05;64144.06;;;-137.53
64904;BMP280;51401;48.882;12.598;2024-03-08T12:40:32;64146.03;;;-137.53
64904;BMP280;51401;48.882;12.598;2024-03-08T12:42:59;64140.09;;;-137.53
64904;BMP280;51401;48.882;12.598;2024-03-08T12:45:25;64140.09;;;-137.53
64904;BMP280;51401;48.882;12.598;2024-03-08T12:47:51;64144.06;;;-137.53
64904;BMP280;51401;48.882;12.598;2024-03-08T12:50:17;64138.09;;;-137.53
64904;BMP280;51401;48.882;12.598;2024-03-08T12:52:42;64138.09;;;-137.53
64904;BMP280;51401;48.882;12.598;2024-03-08T12:55:07;64140.09;;;-137.53
64904;BMP280;51401;48.882;12.598;2024-03-08T12:57:34;64144.06;;;-137.53
64904;BMP280;51401;48.882;12.598;2024-03-08T13:00:01;64142.06;;;-137.53
64904;BMP280;51401;48.882;12.598;2024-03-08T13:02:28;64142.06;;;-137.53
64904;BMP280;51401;48.882;12.598;2024-03-08T13:04:55;64142.06;;;-137.53
64904;BMP280;51401;48.882;12.598;2024-03-08T13:07:23;64144.06;;;-137.53
64904;BMP280;51401;48.882;12.598;2024-03-08T13:09:51;64140.09;;;-137.53
64904;BMP280;51401;48.882;12.598;2024-03-08T13:12:17;64142.06;;;-137.53
64904;BMP280;51401;48.882;12.598;2024-03-08T13:14:42;64140.09;;;-137.53
64904;BMP280;51401;48.882;12.598;2024-03-08T13:17:08;64142.06;;;-137.53
64904;BMP280;51401;48.882;12.598;2024-03-08T13:19:36;64142.06;;;-137.53
64904;BMP280;51401;48.882;12.598;2024-03-08T13:22:04;64138.09;;;-137.53
64904;BMP280;51401;48.882;12.598;2024-03-08T13:24:29;64138.09;;;-137.53
64904;BMP280;51401;48.882;12.598;2024-03-08T13:26:55;64142.06;;;-137.53
64904;BMP280;51401;48.882;12.598;2024-03-08T13:29:20;64136.13;;;-137.53
64904;BMP280;51401;48.882;12.598;2024-03-08T13:31:46;64138.09;;;-137.53
64904;BMP280;51401;48.882;12.598;2024-03-08T13:34:16;64138.09;;;-137.53
64904;BMP280;51401;48.882;12.598;2024-03-08T13:36:43;64140.09;;;-137.53
64904;BMP280;51401;48.882;12.598;2024-03-08T13:39:09;64138.09;;;-137.53
64904;BMP280;51401;48.882;12.598;2024-03-08T13:41:41;64142.06;;;-137.53